Time,TemperatureF,DewpointF,PressureIn,WindDirection,WindDirectionDegrees,WindSpeedMPH,WindSpeedGustMPH,Humidity,HourlyPrecipIn,Conditions,Clouds,dailyrainin,SoftwareType,DateUTC
2013-05-13 00:00:00,54.2,31.6,30.02,SE,140,1.0,6.0,42,0.00,,,0.00,Wunderground v.1.15,2013-05-13 05:00:00,
2013-05-13 00:10:00,53.9,31.9,30.01,SE,131,2.0,2.0,43,0.00,,,0.00,Wunderground v.1.15,2013-05-13 05:10:00,
2013-05-13 00:20:00,53.5,32.1,30.02,SE,134,1.0,1.0,44,0.00,,,0.00,Wunderground v.1.15,2013-05-13 05:20:00,
2013-05-13 00:30:00,53.3,32.5,30.02,SE,138,1.0,1.0,45,0.00,,,0.00,Wunderground v.1.15,2013-05-13 05:30:00,
2013-05-13 00:40:00,53.1,32.8,30.01,SE,138,1.0,11.0,46,0.00,,,0.00,Wunderground v.1.15,2013-05-13 05:40:00,
2013-05-13 00:50:00,52.9,33.7,30.01,SE,138,1.0,9.0,48,0.00,,,0.00,Wunderground v.1.15,2013-05-13 05:50:00,
2013-05-13 01:00:00,52.8,34.2,30.01,SE,138,0.0,9.0,49,0.00,,,0.00,Wunderground v.1.15,2013-05-13 06:00:00,
2013-05-13 01:05:00,52.6,34.5,30.01,SE,140,1.0,9.0,50,0.00,,,0.00,Wunderground v.1.15,2013-05-13 06:05:00,
2013-05-13 01:15:00,52.3,35.2,30.01,SE,140,0.0,9.0,52,0.00,,,0.00,Wunderground v.1.15,2013-05-13 06:15:00,
2013-05-13 01:25:00,52.3,35.7,30.01,SE,140,0.0,31.0,53,0.00,,,0.00,Wunderground v.1.15,2013-05-13 06:25:00,
2013-05-13 01:35:00,52.3,36.6,30.01,SE,140,1.0,31.0,55,0.00,,,0.00,Wunderground v.1.15,2013-05-13 06:35:00,
2013-05-13 01:40:00,52.5,36.8,30.01,SE,138,1.0,1.0,55,0.00,,,0.00,Wunderground v.1.15,2013-05-13 06:40:00,
2013-05-13 01:50:00,52.0,36.8,30.01,SE,140,1.0,1.0,56,0.00,,,0.00,Wunderground v.1.15,2013-05-13 06:50:00,
2013-05-13 02:00:00,51.6,36.9,30.01,SE,140,0.0,6.0,57,0.00,,,0.00,Wunderground v.1.15,2013-05-13 07:00:00,
2013-05-13 02:10:00,51.3,37.0,30.01,SE,140,0.0,6.0,58,0.00,,,0.00,Wunderground v.1.15,2013-05-13 07:10:00,
2013-05-13 02:20:00,51.3,37.4,30.00,SE,141,0.0,4.0,59,0.00,,,0.00,Wunderground v.1.15,2013-05-13 07:20:00,
2013-05-13 02:25:00,51.1,37.3,30.00,SE,141,0.0,4.0,59,0.00,,,0.00,Wunderground v.1.15,2013-05-13 07:25:00,
2013-05-13 02:35:00,51.1,37.7,30.00,SE,140,1.0,4.0,60,0.00,,,0.00,Wunderground v.1.15,2013-05-13 07:35:00,
2013-05-13 02:45:00,51.1,38.1,30.00,SE,140,1.0,4.0,61,0.00,,,0.00,Wunderground v.1.15,2013-05-13 07:45:00,
2013-05-13 02:55:00,51.0,38.0,29.99,SE,141,2.0,6.0,61,0.00,,,0.00,Wunderground v.1.15,2013-05-13 07:55:00,
2013-05-13 03:00:00,50.8,38.2,29.99,SE,140,3.0,3.0,62,0.00,,,0.00,Wunderground v.1.15,2013-05-13 08:00:00,
2013-05-13 03:10:00,51.0,38.4,29.99,SE,140,3.0,3.0,62,0.00,,,0.00,Wunderground v.1.15,2013-05-13 08:10:00,
2013-05-13 03:20:00,51.0,38.4,29.99,SE,145,1.0,6.0,62,0.00,,,0.00,Wunderground v.1.15,2013-05-13 08:20:00,
2013-05-13 03:30:00,51.1,38.5,29.99,SE,138,2.0,6.0,62,0.00,,,0.00,Wunderground v.1.15,2013-05-13 08:30:00,
2013-05-13 03:35:00,51.0,38.4,29.99,SE,143,2.0,6.0,62,0.00,,,0.00,Wunderground v.1.15,2013-05-13 08:35:00,
2013-05-13 03:45:00,50.8,38.2,29.99,SE,144,1.0,6.0,62,0.00,,,0.00,Wunderground v.1.15,2013-05-13 08:45:00,
2013-05-13 03:55:00,50.4,38.3,29.98,SE,145,3.0,8.0,63,0.00,,,0.00,Wunderground v.1.15,2013-05-13 08:55:00,
2013-05-13 04:00:00,50.1,38.4,29.98,SE,144,2.0,8.0,64,0.00,,,0.00,Wunderground v.1.15,2013-05-13 09:00:00,
2013-05-13 04:10:00,49.9,38.6,29.98,SE,144,3.0,3.0,65,0.00,,,0.00,Wunderground v.1.15,2013-05-13 09:10:00,
2013-05-13 04:20:00,49.8,38.9,29.99,SE,145,3.0,3.0,66,0.00,,,0.00,Wunderground v.1.15,2013-05-13 09:20:00,
2013-05-13 04:25:00,49.6,38.7,29.99,SSE,147,2.0,4.0,66,0.00,,,0.00,Wunderground v.1.15,2013-05-13 09:25:00,
2013-05-13 04:35:00,49.6,38.7,29.99,SSE,147,2.0,7.0,66,0.00,,,0.00,Wunderground v.1.15,2013-05-13 09:35:00,
2013-05-13 04:45:00,49.6,39.1,29.99,SSE,152,3.0,4.0,67,0.00,,,0.00,Wunderground v.1.15,2013-05-13 09:45:00,
2013-05-13 04:50:00,49.6,39.1,29.98,SSE,158,3.0,8.0,67,0.00,,,0.00,Wunderground v.1.15,2013-05-13 09:50:00,
2013-05-13 05:00:00,49.6,39.1,29.98,SSE,160,2.0,8.0,67,0.00,,,0.00,Wunderground v.1.15,2013-05-13 10:00:00,
2013-05-13 05:10:00,49.4,38.9,29.98,SSE,147,2.0,8.0,67,0.00,,,0.00,Wunderground v.1.15,2013-05-13 10:10:00,
2013-05-13 05:15:00,49.2,38.7,29.98,SE,145,2.0,8.0,67,0.00,,,0.00,Wunderground v.1.15,2013-05-13 10:15:00,
2013-05-13 05:25:00,48.9,38.8,29.98,SSE,148,2.0,9.0,68,0.00,,,0.00,Wunderground v.1.15,2013-05-13 10:25:00,
2013-05-13 05:35:00,48.8,39.1,29.99,SE,140,4.0,9.0,69,0.00,,,0.00,Wunderground v.1.15,2013-05-13 10:35:00,
2013-05-13 05:40:00,48.8,39.1,29.99,SE,145,5.0,5.0,69,0.00,,,0.00,Wunderground v.1.15,2013-05-13 10:40:00,
2013-05-13 05:50:00,48.9,39.2,29.98,SSE,151,5.0,5.0,69,0.00,,,0.00,Wunderground v.1.15,2013-05-13 10:50:00,
2013-05-13 06:00:00,48.8,39.1,29.98,SSE,151,5.0,5.0,69,0.00,,,0.00,Wunderground v.1.15,2013-05-13 11:00:00,
2013-05-13 06:10:00,48.8,39.1,29.97,SE,140,4.0,4.0,69,0.00,,,0.00,Wunderground v.1.15,2013-05-13 11:10:00,
2013-05-13 06:15:00,48.8,39.4,29.97,SE,140,2.0,7.0,70,0.00,,,0.00,Wunderground v.1.15,2013-05-13 11:15:00,
2013-05-13 06:25:00,48.8,39.4,29.98,SSE,147,1.0,9.0,70,0.00,,,0.00,Wunderground v.1.15,2013-05-13 11:25:00,
2013-05-13 06:30:00,48.8,39.4,29.98,SE,138,0.0,9.0,70,0.00,,,0.00,Wunderground v.1.15,2013-05-13 11:30:00,
2013-05-13 06:40:00,48.9,39.5,29.98,SE,133,0.0,9.0,70,0.00,,,0.00,Wunderground v.1.15,2013-05-13 11:40:00,
2013-05-13 06:50:00,49.4,40.0,29.99,SSE,148,2.0,9.0,70,0.00,,,0.00,Wunderground v.1.15,2013-05-13 11:50:00,
2013-05-13 07:00:00,49.6,40.2,29.99,SE,137,5.0,5.0,70,0.00,,,0.00,Wunderground v.1.15,2013-05-13 12:00:00,
2013-05-13 07:10:00,50.1,40.7,29.98,SE,145,5.0,5.0,70,0.00,,,0.00,Wunderground v.1.15,2013-05-13 12:10:00,
2013-05-13 07:15:00,50.4,41.0,29.98,SE,136,5.0,9.0,70,0.00,,,0.00,Wunderground v.1.15,2013-05-13 12:15:00,
2013-05-13 07:25:00,51.4,41.6,29.98,SE,145,4.0,8.0,69,0.00,,,0.00,Wunderground v.1.15,2013-05-13 12:25:00,
2013-05-13 07:30:00,51.9,41.7,29.98,SSE,155,3.0,8.0,68,0.00,,,0.00,Wunderground v.1.15,2013-05-13 12:30:00,
2013-05-13 07:40:00,52.9,42.2,29.99,SSE,157,3.0,8.0,67,0.00,,,0.00,Wunderground v.1.15,2013-05-13 12:40:00,
2013-05-13 07:50:00,53.8,42.3,29.99,SSE,164,5.0,10.0,65,0.00,,,0.00,Wunderground v.1.15,2013-05-13 12:50:00,
2013-05-13 08:00:00,54.7,41.9,29.99,ESE,117,6.0,10.0,62,0.00,,,0.00,Wunderground v.1.15,2013-05-13 13:00:00,
2013-05-13 08:05:00,55.3,42.1,29.98,South,189,6.0,10.0,61,0.00,,,0.00,Wunderground v.1.15,2013-05-13 13:05:00,
2013-05-13 08:15:00,56.3,42.1,29.98,SSE,161,7.0,10.0,59,0.00,,,0.00,Wunderground v.1.15,2013-05-13 13:15:00,
2013-05-13 08:25:00,56.9,42.3,29.99,SSW,199,7.0,9.0,58,0.00,,,0.00,Wunderground v.1.15,2013-05-13 13:25:00,
2013-05-13 08:35:00,57.8,42.7,29.99,SE,145,6.0,7.0,57,0.00,,,0.00,Wunderground v.1.15,2013-05-13 13:35:00,
2013-05-13 08:45:00,58.4,42.8,29.99,SSE,158,6.0,14.0,56,0.00,,,0.00,Wunderground v.1.15,2013-05-13 13:45:00,
2013-05-13 08:55:00,59.0,42.8,29.99,SE,144,6.0,14.0,55,0.00,,,0.00,Wunderground v.1.15,2013-05-13 13:55:00,
2013-05-13 09:00:00,59.5,42.8,29.99,South,181,7.0,13.0,54,0.00,,,0.00,Wunderground v.1.15,2013-05-13 14:00:00,
2013-05-13 09:10:00,60.4,42.7,29.98,SSE,148,6.0,13.0,52,0.00,,,0.00,Wunderground v.1.15,2013-05-13 14:10:00,
2013-05-13 09:20:00,61.6,42.8,29.98,East,90,7.0,14.0,50,0.00,,,0.00,Wunderground v.1.15,2013-05-13 14:20:00,
2013-05-13 09:30:00,62.7,43.3,29.98,SE,124,7.0,14.0,49,0.00,,,0.00,Wunderground v.1.15,2013-05-13 14:30:00,
2013-05-13 09:40:00,63.7,43.1,29.98,East,100,7.0,14.0,47,0.00,,,0.00,Wunderground v.1.15,2013-05-13 14:40:00,
2013-05-13 09:50:00,64.7,42.3,29.97,South,188,7.0,14.0,44,0.00,,,0.00,Wunderground v.1.15,2013-05-13 14:50:00,
2013-05-13 09:55:00,64.8,42.4,29.97,SE,124,8.0,14.0,44,0.00,,,0.00,Wunderground v.1.15,2013-05-13 14:55:00,
2013-05-13 10:05:00,65.8,42.1,29.96,SSE,154,7.0,14.0,42,0.00,,,0.00,Wunderground v.1.15,2013-05-13 15:05:00,
2013-05-13 10:15:00,66.3,41.2,29.96,SE,143,7.0,14.0,40,0.00,,,0.00,Wunderground v.1.15,2013-05-13 15:15:00,
2013-05-13 10:25:00,67.1,41.3,29.96,SSE,152,8.0,8.0,39,0.00,,,0.00,Wunderground v.1.15,2013-05-13 15:25:00,
2013-05-13 10:30:00,67.3,40.8,29.96,ESE,119,9.0,15.0,38,0.00,,,0.00,Wunderground v.1.15,2013-05-13 15:30:00,
2013-05-13 10:40:00,68.1,41.5,29.95,SSE,162,8.0,8.0,38,0.00,,,0.00,Wunderground v.1.15,2013-05-13 15:40:00,
2013-05-13 10:45:00,68.1,40.8,29.95,South,171,8.0,10.0,37,0.00,,,0.00,Wunderground v.1.15,2013-05-13 15:45:00,
2013-05-13 10:55:00,69.1,42.4,29.94,SSE,162,7.0,17.0,38,0.00,,,0.00,Wunderground v.1.15,2013-05-13 15:55:00,
2013-05-13 11:05:00,69.4,41.3,29.94,SSE,164,8.0,17.0,36,0.00,,,0.00,Wunderground v.1.15,2013-05-13 16:05:00,
2013-05-13 11:15:00,70.3,41.3,29.94,SE,143,7.0,17.0,35,0.00,,,0.00,Wunderground v.1.15,2013-05-13 16:15:00,
2013-05-13 11:25:00,70.8,41.0,29.94,SE,128,8.0,17.0,34,0.00,,,0.00,Wunderground v.1.15,2013-05-13 16:25:00,
2013-05-13 11:35:00,71.1,41.3,29.93,SE,133,9.0,11.0,34,0.00,,,0.00,Wunderground v.1.15,2013-05-13 16:35:00,
2013-05-13 11:40:00,71.3,40.7,29.93,SSE,150,8.0,17.0,33,0.00,,,0.00,Wunderground v.1.15,2013-05-13 16:40:00,
2013-05-13 11:50:00,71.8,41.9,29.92,SSE,160,9.0,9.0,34,0.00,,,0.00,Wunderground v.1.15,2013-05-13 16:50:00,
2013-05-13 12:00:00,72.5,41.7,29.92,South,191,9.0,17.0,33,0.00,,,0.00,Wunderground v.1.15,2013-05-13 17:00:00,
2013-05-13 12:10:00,72.8,42.0,29.92,South,172,8.0,17.0,33,0.00,,,0.00,Wunderground v.1.15,2013-05-13 17:10:00,
2013-05-13 12:20:00,72.8,41.2,29.92,SSE,152,7.0,7.0,32,0.00,,,0.00,Wunderground v.1.15,2013-05-13 17:20:00,
2013-05-13 12:30:00,73.5,42.6,29.92,South,174,7.0,7.0,33,0.00,,,0.00,Wunderground v.1.15,2013-05-13 17:30:00,
2013-05-13 12:35:00,74.0,43.1,29.91,SE,137,7.0,17.0,33,0.00,,,0.00,Wunderground v.1.15,2013-05-13 17:35:00,
2013-05-13 12:45:00,74.0,42.3,29.91,ESE,119,7.0,17.0,32,0.00,,,0.00,Wunderground v.1.15,2013-05-13 17:45:00,
2013-05-13 12:55:00,74.2,41.6,29.91,SE,124,9.0,9.0,31,0.00,,,0.00,Wunderground v.1.15,2013-05-13 17:55:00,
2013-05-13 13:05:00,74.7,42.0,29.91,SSW,199,7.0,17.0,31,0.00,,,0.00,Wunderground v.1.15,2013-05-13 18:05:00,
2013-05-13 13:15:00,75.1,42.4,29.91,SSE,151,8.0,17.0,31,0.00,,,0.00,Wunderground v.1.15,2013-05-13 18:15:00,
2013-05-13 13:25:00,75.8,41.3,29.90,SE,131,7.0,17.0,29,0.00,,,0.00,Wunderground v.1.15,2013-05-13 18:25:00,
2013-05-13 13:30:00,75.8,41.3,29.90,SE,127,7.0,7.0,29,0.00,,,0.00,Wunderground v.1.15,2013-05-13 18:30:00,
2013-05-13 13:40:00,75.6,41.1,29.90,SSE,158,7.0,7.0,29,0.00,,,0.00,Wunderground v.1.15,2013-05-13 18:40:00,
2013-05-13 13:50:00,76.3,43.4,29.89,SE,141,7.0,16.0,31,0.00,,,0.00,Wunderground v.1.15,2013-05-13 18:50:00,
2013-05-13 14:00:00,77.2,41.6,29.89,South,174,7.0,16.0,28,0.00,,,0.00,Wunderground v.1.15,2013-05-13 19:00:00,
2013-05-13 14:05:00,77.0,41.4,29.89,East,88,8.0,16.0,28,0.00,,,0.00,Wunderground v.1.15,2013-05-13 19:05:00,
2013-05-13 14:15:00,77.4,42.6,29.89,SE,138,8.0,16.0,29,0.00,,,0.00,Wunderground v.1.15,2013-05-13 19:15:00,
2013-05-13 14:25:00,77.6,41.9,29.88,SE,141,9.0,9.0,28,0.00,,,0.00,Wunderground v.1.15,2013-05-13 19:25:00,
2013-05-13 14:30:00,77.6,41.9,29.88,South,182,8.0,17.0,28,0.00,,,0.00,Wunderground v.1.15,2013-05-13 19:30:00,
2013-05-13 14:40:00,77.7,41.0,29.87,South,188,9.0,9.0,27,0.00,,,0.00,Wunderground v.1.15,2013-05-13 19:40:00,
2013-05-13 14:50:00,77.9,42.2,29.87,South,169,10.0,10.0,28,0.00,,,0.00,Wunderground v.1.15,2013-05-13 19:50:00,
2013-05-13 15:00:00,78.5,41.7,29.87,SSE,151,10.0,17.0,27,0.00,,,0.00,Wunderground v.1.15,2013-05-13 20:00:00,
2013-05-13 15:10:00,78.6,42.8,29.86,SE,124,10.0,10.0,28,0.00,,,0.00,Wunderground v.1.15,2013-05-13 20:10:00,
2013-05-13 15:15:00,78.5,41.7,29.86,SE,137,9.0,17.0,27,0.00,,,0.00,Wunderground v.1.15,2013-05-13 20:15:00,
2013-05-13 15:25:00,78.8,41.0,29.85,South,186,10.0,11.0,26,0.00,,,0.00,Wunderground v.1.15,2013-05-13 20:25:00,
2013-05-13 15:35:00,78.8,42.0,29.85,SSE,157,10.0,21.0,27,0.00,,,0.00,Wunderground v.1.15,2013-05-13 20:35:00,
2013-05-13 15:45:00,79.4,43.4,29.85,South,188,9.0,21.0,28,0.00,,,0.00,Wunderground v.1.15,2013-05-13 20:45:00,
2013-05-13 15:55:00,79.6,43.6,29.84,South,184,9.0,23.0,28,0.00,,,0.00,Wunderground v.1.15,2013-05-13 20:55:00,
2013-05-13 16:00:00,79.8,43.8,29.84,SSW,192,9.0,9.0,28,0.00,,,0.00,Wunderground v.1.15,2013-05-13 21:00:00,
2013-05-13 16:10:00,79.8,43.8,29.84,South,174,10.0,10.0,28,0.00,,,0.00,Wunderground v.1.15,2013-05-13 21:10:00,
2013-05-13 16:15:00,79.9,43.9,29.84,South,169,9.0,23.0,28,0.00,,,0.00,Wunderground v.1.15,2013-05-13 21:15:00,
2013-05-13 16:25:00,79.9,42.9,29.83,SSW,203,10.0,18.0,27,0.00,,,0.00,Wunderground v.1.15,2013-05-13 21:25:00,
2013-05-13 16:30:00,79.8,43.8,29.83,SE,124,10.0,10.0,28,0.00,,,0.00,Wunderground v.1.15,2013-05-13 21:30:00,
2013-05-13 16:40:00,79.8,43.8,29.83,South,175,10.0,20.0,28,0.00,,,0.00,Wunderground v.1.15,2013-05-13 21:40:00,
2013-05-13 16:45:00,79.9,43.9,29.83,SSW,212,9.0,20.0,28,0.00,,,0.00,Wunderground v.1.15,2013-05-13 21:45:00,
2013-05-13 16:55:00,79.9,45.7,29.82,South,191,9.0,23.0,30,0.00,,,0.00,Wunderground v.1.15,2013-05-13 21:55:00,
2013-05-13 17:00:00,79.8,44.7,29.82,South,185,11.0,23.0,29,0.00,,,0.00,Wunderground v.1.15,2013-05-13 22:00:00,
2013-05-13 17:10:00,79.6,43.6,29.81,SW,215,13.0,13.0,28,0.00,,,0.00,Wunderground v.1.15,2013-05-13 22:10:00,
2013-05-13 17:20:00,79.6,46.3,29.81,SSW,202,14.0,24.0,31,0.00,,,0.00,Wunderground v.1.15,2013-05-13 22:20:00,
2013-05-13 17:25:00,79.6,45.4,29.81,South,175,12.0,24.0,30,0.00,,,0.00,Wunderground v.1.15,2013-05-13 22:25:00,
2013-05-13 17:35:00,79.4,45.3,29.81,SSW,199,11.0,24.0,30,0.00,,,0.00,Wunderground v.1.15,2013-05-13 22:35:00,
2013-05-13 17:45:00,79.4,47.0,29.81,SSE,158,11.0,24.0,32,0.00,,,0.00,Wunderground v.1.15,2013-05-13 22:45:00,
2013-05-13 17:55:00,79.2,44.2,29.79,SSW,196,15.0,25.0,29,0.00,,,0.00,Wunderground v.1.15,2013-05-13 22:55:00,
2013-05-13 18:00:00,79.2,43.3,29.79,SW,220,18.0,25.0,28,0.00,,,0.00,Wunderground v.1.15,2013-05-13 23:00:00,
2013-05-13 18:10:00,79.2,45.1,29.79,SSW,199,15.0,15.0,30,0.00,,,0.00,Wunderground v.1.15,2013-05-13 23:10:00,
2013-05-13 18:15:00,79.2,45.1,29.79,South,176,13.0,25.0,30,0.00,,,0.00,Wunderground v.1.15,2013-05-13 23:15:00,
2013-05-13 18:25:00,78.5,45.3,29.79,SSW,209,14.0,15.0,31,0.00,,,0.00,Wunderground v.1.15,2013-05-13 23:25:00,
2013-05-13 18:35:00,78.3,46.8,29.79,SSW,203,13.0,30.0,33,0.00,,,0.00,Wunderground v.1.15,2013-05-13 23:35:00,
2013-05-13 18:45:00,78.3,46.8,29.79,South,181,12.0,30.0,33,0.00,,,0.00,Wunderground v.1.15,2013-05-13 23:45:00,
2013-05-13 18:50:00,78.1,47.4,29.78,SSW,202,12.0,12.0,34,0.00,,,0.00,Wunderground v.1.15,2013-05-13 23:50:00,
2013-05-13 19:00:00,77.7,48.6,29.78,SE,145,12.0,12.0,36,0.00,,,0.00,Wunderground v.1.15,2013-05-14 00:00:00,
2013-05-13 19:10:00,77.6,49.3,29.78,South,172,10.0,10.0,37,0.00,,,0.00,Wunderground v.1.15,2013-05-14 00:10:00,
2013-05-13 19:15:00,77.2,48.9,29.78,SSW,210,11.0,16.0,37,0.00,,,0.00,Wunderground v.1.15,2013-05-14 00:15:00,
2013-05-13 19:25:00,76.8,49.3,29.77,SSW,202,9.0,13.0,38,0.00,,,0.00,Wunderground v.1.15,2013-05-14 00:25:00,
2013-05-13 19:35:00,76.3,50.2,29.77,SSW,196,8.0,22.0,40,0.00,,,0.00,Wunderground v.1.15,2013-05-14 00:35:00,
2013-05-13 19:40:00,76.0,49.9,29.77,South,189,8.0,8.0,40,0.00,,,0.00,Wunderground v.1.15,2013-05-14 00:40:00,
2013-05-13 19:50:00,75.4,50.1,29.77,SSW,212,8.0,22.0,41,0.00,,,0.00,Wunderground v.1.15,2013-05-14 00:50:00,
2013-05-13 19:55:00,75.1,50.4,29.77,SSW,196,8.0,22.0,42,0.00,,,0.00,Wunderground v.1.15,2013-05-14 00:55:00,
2013-05-13 20:05:00,74.6,51.2,29.77,South,188,9.0,22.0,44,0.00,,,0.00,Wunderground v.1.15,2013-05-14 01:05:00,
2013-05-13 20:15:00,73.9,51.2,29.77,SSW,196,7.0,22.0,45,0.00,,,0.00,Wunderground v.1.15,2013-05-14 01:15:00,
2013-05-13 20:25:00,73.0,51.0,29.77,South,185,6.0,15.0,46,0.00,,,0.00,Wunderground v.1.15,2013-05-14 01:25:00,
2013-05-13 20:30:00,72.7,51.3,29.77,South,178,5.0,5.0,47,0.00,,,0.00,Wunderground v.1.15,2013-05-14 01:30:00,
2013-05-13 20:40:00,72.3,51.5,29.77,South,172,6.0,15.0,48,0.00,,,0.00,Wunderground v.1.15,2013-05-14 01:40:00,
2013-05-13 20:45:00,72.0,51.2,29.77,South,185,6.0,15.0,48,0.00,,,0.00,Wunderground v.1.15,2013-05-14 01:45:00,
2013-05-13 20:55:00,71.5,51.9,29.77,South,174,7.0,16.0,50,0.00,,,0.00,Wunderground v.1.15,2013-05-14 01:55:00,
2013-05-13 21:00:00,71.3,51.7,29.77,South,179,7.0,7.0,50,0.00,,,0.00,Wunderground v.1.15,2013-05-14 02:00:00,
2013-05-13 21:10:00,71.1,52.0,29.77,South,185,7.0,16.0,51,0.00,,,0.00,Wunderground v.1.15,2013-05-14 02:10:00,
2013-05-13 21:20:00,70.8,52.3,29.76,SSW,203,6.0,13.0,52,0.00,,,0.00,Wunderground v.1.15,2013-05-14 02:20:00,
2013-05-13 21:30:00,70.1,52.2,29.76,SSE,164,6.0,6.0,53,0.00,,,0.00,Wunderground v.1.15,2013-05-14 02:30:00,
2013-05-13 21:35:00,69.8,52.4,29.76,SSW,198,6.0,9.0,54,0.00,,,0.00,Wunderground v.1.15,2013-05-14 02:35:00,
2013-05-13 21:45:00,69.3,52.4,29.76,SSE,160,6.0,13.0,55,0.00,,,0.00,Wunderground v.1.15,2013-05-14 02:45:00,
2013-05-13 21:55:00,69.1,52.7,29.76,South,189,7.0,13.0,56,0.00,,,0.00,Wunderground v.1.15,2013-05-14 02:55:00,
2013-05-13 22:05:00,68.9,53.0,29.76,South,179,8.0,10.0,57,0.00,,,0.00,Wunderground v.1.15,2013-05-14 03:05:00,
2013-05-13 22:20:00,68.8,53.4,29.76,SSE,165,7.0,7.0,58,0.00,,,0.00,Wunderground v.1.15,2013-05-14 03:20:00,
2013-05-13 22:25:00,68.4,53.0,29.76,South,185,7.0,9.0,58,0.00,,,0.00,Wunderground v.1.15,2013-05-14 03:25:00,
2013-05-13 22:30:00,68.3,52.9,29.76,SSE,157,7.0,7.0,58,0.00,,,0.00,Wunderground v.1.15,2013-05-14 03:30:00,
2013-05-13 22:35:00,68.1,53.2,29.76,South,191,7.0,15.0,59,0.00,,,0.00,Wunderground v.1.15,2013-05-14 03:35:00,
2013-05-13 22:45:00,67.8,53.4,29.76,SSE,164,7.0,15.0,60,0.00,,,0.00,Wunderground v.1.15,2013-05-14 03:45:00,
2013-05-13 22:55:00,67.8,53.4,29.76,SSW,195,7.0,9.0,60,0.00,,,0.00,Wunderground v.1.15,2013-05-14 03:55:00,
2013-05-13 23:05:00,67.4,53.5,29.76,South,178,8.0,15.0,61,0.00,,,0.00,Wunderground v.1.15,2013-05-14 04:05:00,
2013-05-13 23:10:00,67.4,53.9,29.76,South,182,8.0,15.0,62,0.00,,,0.00,Wunderground v.1.15,2013-05-14 04:10:00,
2013-05-13 23:15:00,67.3,53.8,29.76,South,184,8.0,15.0,62,0.00,,,0.00,Wunderground v.1.15,2013-05-14 04:15:00,
2013-05-13 23:20:00,67.1,54.1,29.75,SSE,167,8.0,15.0,63,0.00,,,0.00,Wunderground v.1.15,2013-05-14 04:20:00,
2013-05-13 23:25:00,66.9,53.9,29.75,South,179,8.0,15.0,63,0.00,,,0.00,Wunderground v.1.15,2013-05-14 04:25:00,
2013-05-13 23:30:00,66.8,53.8,29.75,South,188,7.0,7.0,63,0.00,,,0.00,Wunderground v.1.15,2013-05-14 04:30:00,
2013-05-13 23:40:00,66.8,54.2,29.75,SW,223,6.0,15.0,64,0.00,,,0.00,Wunderground v.1.15,2013-05-14 04:40:00,
2013-05-13 23:50:00,66.8,54.2,29.74,SW,219,8.0,16.0,64,0.00,,,0.00,Wunderground v.1.15,2013-05-14 04:50:00,